Thursday, August 25, 2016, 7:38 PM EDT

KFYJ, West Point, Middle Peninsula Regional Airport

Location: Shacklefords, VA, United States Lat: 37.521
Local Time: 7:38 PM EDT (23:38 GMT) Lon: -76.764
Time Zone: US/Eastern Elev: 22 ft

Show me the last for .
Show Decoded

2016-08-25 19:15 METAR KFYJ 252315Z AUTO 17004KT 10SM CLR 30/20 A3005 RMK AO2 T02970200 =
2016-08-25 18:55 METAR KFYJ 252255Z AUTO 18005KT 10SM CLR 30/20 A3005 RMK AO2 T03020196 =
2016-08-25 18:35 METAR KFYJ 252235Z AUTO 20005KT 10SM CLR 31/19 A3005 RMK AO2 T03090194 =
2016-08-25 18:15 METAR KFYJ 252215Z AUTO 18005KT 10SM CLR 31/19 A3006 RMK AO2 T03120193 =
2016-08-25 17:55 METAR KFYJ 252155Z AUTO 20009KT 10SM CLR 32/19 A3005 RMK AO2 T03160194 =
2016-08-25 17:35 METAR KFYJ 252135Z AUTO 19006KT 10SM CLR 32/20 A3006 RMK AO2 T03200198 =
2016-08-25 17:15 METAR KFYJ 252115Z AUTO 21008KT 10SM CLR 32/19 A3006 RMK AO2 T03190193 =
2016-08-25 16:55 METAR KFYJ 252055Z AUTO 20007KT 10SM SCT045 32/19 A3006 RMK AO2 T03160190 =
2016-08-25 16:35 METAR KFYJ 252035Z AUTO 21007KT 10SM SCT045 32/19 A3007 RMK AO2 T03180194 =
2016-08-25 16:15 METAR KFYJ 252015Z AUTO 20007KT 10SM CLR 32/19 A3007 RMK AO2 T03230192 =
2016-08-25 15:55 METAR KFYJ 251955Z AUTO 17007KT 10SM CLR 32/19 A3007 RMK AO2 T03200193 =
2016-08-25 15:35 METAR KFYJ 251935Z AUTO 19007KT 160V220 10SM SCT045 32/19 A3008 RMK AO2
                 T03150189 =
2016-08-25 15:15 METAR KFYJ 251915Z AUTO 18008KT 10SM CLR 31/19 A3008 RMK AO2 T03140189 =
2016-08-25 14:55 METAR KFYJ 251855Z AUTO 18008KT 10SM CLR 31/19 A3009 RMK AO2 T03100188 =
2016-08-25 14:35 METAR KFYJ 251835Z AUTO 21009KT 10SM CLR 31/19 A3009 RMK AO2 T03110189 =
2016-08-25 14:15 METAR KFYJ 251815Z AUTO 20007KT 10SM CLR 31/19 A3011 RMK AO2 T03130187 =
2016-08-25 13:55 METAR KFYJ 251755Z AUTO 18010G14KT 10SM CLR 31/19 A3011 RMK AO2 T03110185 10312
                 20219 =
2016-08-25 13:35 METAR KFYJ 251735Z AUTO 20009G15KT 180V250 10SM CLR 31/19 A3012 RMK AO2
                 T03120185 =
2016-08-25 13:15 METAR KFYJ 251715Z AUTO 20007KT 10SM CLR 31/18 A3012 RMK AO2 T03060183 =
2016-08-25 12:55 METAR KFYJ 251655Z AUTO 17010KT 10SM CLR 30/18 A3013 RMK AO2 T03040182 =
2016-08-25 12:35 METAR KFYJ 251635Z AUTO 20006KT 10SM CLR 31/18 A3013 RMK AO2 T03050182 =
2016-08-25 12:15 METAR KFYJ 251615Z AUTO 20006KT 10SM CLR 30/18 A3014 RMK AO2 T03010175 =
2016-08-25 11:55 METAR KFYJ 251555Z AUTO 18006KT 10SM CLR 30/18 A3015 RMK AO2 T02970181 =
2016-08-25 11:35 METAR KFYJ 251535Z AUTO 21008KT 10SM CLR 29/18 A3016 RMK AO2 T02940179 =
2016-08-25 11:15 METAR KFYJ 251515Z AUTO 23008KT 10SM SCT039 29/18 A3016 RMK AO2 T02890175 =
2016-08-25 10:55 METAR KFYJ 251455Z AUTO 21008KT 10SM BKN039 28/18 A3017 RMK AO2 T02750178 =
2016-08-25 10:35 METAR KFYJ 251435Z AUTO 21006KT 10SM OVC039 27/19 A3017 RMK AO2 T02720186 =
2016-08-25 10:15 METAR KFYJ 251415Z AUTO 22006KT 10SM SCT039 27/19 A3017 RMK AO2 T02700191 =
2016-08-25 09:55 METAR KFYJ 251355Z AUTO 20006KT 10SM SCT041 27/20 A3017 RMK AO2 T02650196 =
2016-08-25 09:35 METAR KFYJ 251335Z AUTO 21006KT 10SM BKN041 26/20 A3017 RMK AO2 T02550204 =
2016-08-25 09:15 METAR KFYJ 251315Z AUTO 21004KT 10SM CLR 25/21 A3017 RMK AO2 T02480212 =
2016-08-25 08:55 METAR KFYJ 251255Z AUTO 19004KT 10SM CLR 24/21 A3017 RMK AO2 T02350210 =
2016-08-25 08:35 METAR KFYJ 251235Z AUTO 20004KT 10SM CLR 23/21 A3018 RMK AO2 T02270207 =
2016-08-25 08:15 METAR KFYJ 251215Z AUTO 21004KT 10SM SCT060 22/21 A3018 RMK AO2 T02230207 =
2016-08-25 07:55 METAR KFYJ 251155Z AUTO 19003KT 10SM CLR 22/21 A3018 RMK AO2 T02180205 10218
                 20177 =
2016-08-25 07:35 METAR KFYJ 251135Z AUTO 18003KT 10SM CLR 22/20 A3018 RMK AO2 T02150202 =
2016-08-25 07:15 METAR KFYJ 251115Z AUTO 18003KT 10SM CLR 21/20 A3018 RMK AO2 T02120202 =
2016-08-25 06:55 METAR KFYJ 251055Z AUTO 20003KT 10SM SCT055 21/20 A3019 RMK AO2 T02110201 =
2016-08-25 06:35 METAR KFYJ 251035Z AUTO 18003KT 10SM SCT055 21/20 A3018 RMK AO2 T02110201 =
2016-08-25 06:15 METAR KFYJ 251015Z AUTO 21003KT 10SM BKN055 21/20 A3018 RMK AO2 T02120202 =
2016-08-25 05:55 METAR KFYJ 250955Z AUTO 00000KT 10SM SCT055 21/20 A3017 RMK AO2 T02130203 =
2016-08-25 05:35 METAR KFYJ 250935Z AUTO 19003KT 10SM CLR 21/20 A3017 RMK AO2 T02090198 =
2016-08-25 05:15 METAR KFYJ 250915Z AUTO 17003KT 10SM CLR 21/20 A3017 RMK AO2 T02100200 =
2016-08-25 04:55 METAR KFYJ 250855Z AUTO 16004KT 10SM CLR 21/20 A3016 RMK AO2 T02080197 =
2016-08-25 04:35 METAR KFYJ 250835Z AUTO 17003KT 10SM CLR 21/20 A3017 RMK AO2 T02100196 =
2016-08-25 04:15 METAR KFYJ 250815Z AUTO 18003KT 10SM CLR 21/20 A3018 RMK AO2 T02100195 =
2016-08-25 03:55 METAR KFYJ 250755Z AUTO 17004KT 10SM CLR 21/20 A3018 RMK AO2 T02100196 =
2016-08-25 03:35 METAR KFYJ 250735Z AUTO 17003KT 10SM CLR 20/19 A3018 RMK AO2 T02040191 =
2016-08-25 03:15 METAR KFYJ 250715Z AUTO 15003KT 10SM CLR 19/18 A3018 RMK AO2 T01930182 =
2016-08-25 02:55 METAR KFYJ 250655Z AUTO 17003KT 10SM CLR 20/19 A3018 RMK AO2 T02020190 =
2016-08-25 02:35 METAR KFYJ 250635Z AUTO 16003KT 10SM CLR 19/18 A3018 RMK AO2 T01860176 =
2016-08-25 02:15 METAR KFYJ 250615Z AUTO 00000KT 10SM CLR 19/18 A3019 RMK AO2 T01890180 =
2016-08-25 01:55 METAR KFYJ 250555Z AUTO 00000KT 10SM CLR 18/17 A3020 RMK AO2 T01750168 10229
                 20174 402990143 =
2016-08-25 01:35 METAR KFYJ 250535Z AUTO 00000KT 10SM CLR 18/17 A3020 RMK AO2 T01810172 =
2016-08-25 01:15 METAR KFYJ 250515Z AUTO 00000KT 10SM CLR 19/18 A3021 RMK AO2 T01860177 =
2016-08-25 00:55 METAR KFYJ 250455Z AUTO 00000KT 10SM CLR 18/16 A3021 RMK AO2 T01760164 =
2016-08-25 00:15 METAR KFYJ 250415Z AUTO 00000KT 10SM CLR 19/18 A3021 RMK AO2 T01940177 =
2016-08-24 23:55 METAR KFYJ 250355Z AUTO 00000KT 10SM CLR 20/18 A3021 RMK AO2 T01950175 =
2016-08-24 23:35 METAR KFYJ 250335Z AUTO 09003KT 10SM CLR 20/18 A3021 RMK AO2 T02000175 =
2016-08-24 23:15 METAR KFYJ 250315Z AUTO 11003KT 10SM CLR 20/17 A3021 RMK AO2 T01990173 =
2016-08-24 22:55 METAR KFYJ 250255Z AUTO 12004KT 10SM CLR 21/17 A3021 RMK AO2 T02050171 =
2016-08-24 22:35 METAR KFYJ 250235Z AUTO 12004KT 10SM CLR 21/17 A3022 RMK AO2 T02070169 =
2016-08-24 22:15 METAR KFYJ 250215Z AUTO 12004KT 10SM CLR 22/17 A3022 RMK AO2 T02150165 =
2016-08-24 21:55 METAR KFYJ 250155Z AUTO 13005KT 10SM CLR 22/16 A3022 RMK AO2 T02150161 =
2016-08-24 21:35 METAR KFYJ 250135Z AUTO 11005KT 10SM CLR 21/16 A3023 RMK AO2 T02090156 =
2016-08-24 21:15 METAR KFYJ 250115Z AUTO 10005KT 10SM CLR 21/16 A3023 RMK AO2 T02140155 =
2016-08-24 20:55 METAR KFYJ 250055Z AUTO 11004KT 10SM CLR 22/16 A3022 RMK AO2 T02170160 =
2016-08-24 20:35 METAR KFYJ 250035Z AUTO 10003KT 10SM CLR 22/16 A3023 RMK AO2 T02160161 =
2016-08-24 20:15 METAR KFYJ 250015Z AUTO 13003KT 10SM CLR 22/16 A3022 RMK AO2 T02190161 =
2016-08-24 19:55 METAR KFYJ 242355Z AUTO 12004KT 10SM CLR 23/16 A3022 RMK AO2 T02300160 10299
                 20230 =

Support USWX by starting your Amazon purchase here.